sensor_id;sensor_type;location;lat;lon;timestamp;P1;durP1;ratioP1;P2;durP2;ratioP2
57571;SDS011;44459;43.522;24.470;2022-10-17T00:01:02;0.00;;;0.00;;
57571;SDS011;44459;43.522;24.470;2022-10-17T00:03:28;0.00;;;0.00;;
57571;SDS011;44459;43.522;24.470;2022-10-17T00:05:54;0.00;;;0.00;;
57571;SDS011;44459;43.522;24.470;2022-10-17T00:08:19;0.00;;;0.00;;
57571;SDS011;44459;43.522;24.470;2022-10-17T00:10:45;0.00;;;0.00;;
57571;SDS011;44459;43.522;24.470;2022-10-17T00:13:20;0.00;;;0.00;;
57571;SDS011;44459;43.522;24.470;2022-10-17T00:15:45;0.10;;;0.10;;
57571;SDS011;44459;43.522;24.470;2022-10-17T00:18:11;0.00;;;0.00;;
57571;SDS011;44459;43.522;24.470;2022-10-17T00:20:36;0.00;;;0.00;;
57571;SDS011;44459;43.522;24.470;2022-10-17T00:23:02;0.10;;;0.10;;
57571;SDS011;44459;43.522;24.470;2022-10-17T00:25:27;0.10;;;0.10;;
57571;SDS011;44459;43.522;24.470;2022-10-17T00:27:53;0.00;;;0.00;;
57571;SDS011;44459;43.522;24.470;2022-10-17T00:30:18;0.22;;;0.22;;
57571;SDS011;44459;43.522;24.470;2022-10-17T00:32:44;0.10;;;0.10;;
57571;SDS011;44459;43.522;24.470;2022-10-17T00:35:09;0.10;;;0.10;;
57571;SDS011;44459;43.522;24.470;2022-10-17T00:37:35;0.00;;;0.00;;
57571;SDS011;44459;43.522;24.470;2022-10-17T00:40:01;0.05;;;0.05;;
57571;SDS011;44459;43.522;24.470;2022-10-17T00:42:28;0.00;;;0.00;;
57571;SDS011;44459;43.522;24.470;2022-10-17T00:44:56;0.00;;;0.00;;
57571;SDS011;44459;43.522;24.470;2022-10-17T00:47:24;0.10;;;0.10;;
57571;SDS011;44459;43.522;24.470;2022-10-17T00:49:50;0.10;;;0.10;;
57571;SDS011;44459;43.522;24.470;2022-10-17T00:52:24;0.10;;;0.10;;
57571;SDS011;44459;43.522;24.470;2022-10-17T00:54:53;0.00;;;0.00;;
57571;SDS011;44459;43.522;24.470;2022-10-17T00:57:23;0.10;;;0.10;;
57571;SDS011;44459;43.522;24.470;2022-10-17T00:59:51;2.53;;;0.85;;
57571;SDS011;44459;43.522;24.470;2022-10-17T01:04:46;0.00;;;0.00;;
57571;SDS011;44459;43.522;24.470;2022-10-17T01:07:14;0.10;;;0.10;;
57571;SDS011;44459;43.522;24.470;2022-10-17T01:09:40;0.10;;;0.10;;
57571;SDS011;44459;43.522;24.470;2022-10-17T01:15:18;0.00;;;0.00;;
57571;SDS011;44459;43.522;24.470;2022-10-17T01:18:28;0.05;;;0.05;;
57571;SDS011;44459;43.522;24.470;2022-10-17T01:34:34;0.10;;;0.10;;
57571;SDS011;44459;43.522;24.470;2022-10-17T01:47:55;0.00;;;0.00;;
57571;SDS011;44459;43.522;24.470;2022-10-17T01:50:27;0.00;;;0.00;;
57571;SDS011;44459;43.522;24.470;2022-10-17T01:53:07;0.10;;;0.10;;
57571;SDS011;44459;43.522;24.470;2022-10-17T01:55:39;0.10;;;0.10;;
57571;SDS011;44459;43.522;24.470;2022-10-17T01:58:09;0.00;;;0.00;;
57571;SDS011;44459;43.522;24.470;2022-10-17T02:00:38;0.10;;;0.10;;
57571;SDS011;44459;43.522;24.470;2022-10-17T02:03:08;0.00;;;0.00;;
57571;SDS011;44459;43.522;24.470;2022-10-17T02:05:40;0.00;;;0.00;;
57571;SDS011;44459;43.522;24.470;2022-10-17T02:08:07;0.10;;;0.10;;
57571;SDS011;44459;43.522;24.470;2022-10-17T02:24:05;0.00;;;0.00;;
57571;SDS011;44459;43.522;24.470;2022-10-17T02:29:16;0.00;;;0.00;;
57571;SDS011;44459;43.522;24.470;2022-10-17T02:31:57;0.10;;;0.10;;
57571;SDS011;44459;43.522;24.470;2022-10-17T02:34:28;0.00;;;0.00;;
57571;SDS011;44459;43.522;24.470;2022-10-17T02:36:59;0.10;;;0.10;;
57571;SDS011;44459;43.522;24.470;2022-10-17T02:39:29;0.00;;;0.00;;
57571;SDS011;44459;43.522;24.470;2022-10-17T02:41:56;0.10;;;0.10;;
57571;SDS011;44459;43.522;24.470;2022-10-17T02:44:25;0.10;;;0.10;;
57571;SDS011;44459;43.522;24.470;2022-10-17T02:46:54;0.00;;;0.00;;
57571;SDS011;44459;43.522;24.470;2022-10-17T02:49:46;0.00;;;0.00;;
57571;SDS011;44459;43.522;24.470;2022-10-17T02:52:21;0.00;;;0.00;;
57571;SDS011;44459;43.522;24.470;2022-10-17T02:54:58;0.00;;;0.00;;
57571;SDS011;44459;43.522;24.470;2022-10-17T02:57:33;0.00;;;0.00;;
57571;SDS011;44459;43.522;24.470;2022-10-17T03:00:00;0.00;;;0.00;;
57571;SDS011;44459;43.522;24.470;2022-10-17T03:02:27;0.00;;;0.00;;
57571;SDS011;44459;43.522;24.470;2022-10-17T03:05:02;0.00;;;0.00;;
57571;SDS011;44459;43.522;24.470;2022-10-17T03:07:27;0.65;;;0.65;;
57571;SDS011;44459;43.522;24.470;2022-10-17T03:09:53;0.00;;;0.00;;
57571;SDS011;44459;43.522;24.470;2022-10-17T03:12:18;0.00;;;0.00;;
57571;SDS011;44459;43.522;24.470;2022-10-17T03:14:43;0.00;;;0.00;;
57571;SDS011;44459;43.522;24.470;2022-10-17T03:17:09;0.00;;;0.00;;
57571;SDS011;44459;43.522;24.470;2022-10-17T03:19:34;0.00;;;0.00;;
57571;SDS011;44459;43.522;24.470;2022-10-17T03:22:00;0.10;;;0.10;;
57571;SDS011;44459;43.522;24.470;2022-10-17T03:24:25;0.00;;;0.00;;
57571;SDS011;44459;43.522;24.470;2022-10-17T03:26:51;0.00;;;0.00;;
57571;SDS011;44459;43.522;24.470;2022-10-17T03:29:16;0.00;;;0.00;;
57571;SDS011;44459;43.522;24.470;2022-10-17T03:31:42;0.15;;;0.15;;
57571;SDS011;44459;43.522;24.470;2022-10-17T03:34:07;0.10;;;0.10;;
57571;SDS011;44459;43.522;24.470;2022-10-17T03:36:32;0.10;;;0.10;;
57571;SDS011;44459;43.522;24.470;2022-10-17T03:38:58;0.10;;;0.10;;
57571;SDS011;44459;43.522;24.470;2022-10-17T03:41:23;0.00;;;0.00;;
57571;SDS011;44459;43.522;24.470;2022-10-17T03:43:51;0.20;;;0.20;;
57571;SDS011;44459;43.522;24.470;2022-10-17T03:46:17;0.10;;;0.10;;
57571;SDS011;44459;43.522;24.470;2022-10-17T03:48:42;0.10;;;0.10;;
57571;SDS011;44459;43.522;24.470;2022-10-17T03:51:08;0.00;;;0.00;;
57571;SDS011;44459;43.522;24.470;2022-10-17T03:53:34;0.00;;;0.00;;
57571;SDS011;44459;43.522;24.470;2022-10-17T03:58:42;0.32;;;0.32;;
57571;SDS011;44459;43.522;24.470;2022-10-17T04:01:09;0.10;;;0.10;;
57571;SDS011;44459;43.522;24.470;2022-10-17T04:03:36;0.10;;;0.10;;
57571;SDS011;44459;43.522;24.470;2022-10-17T04:06:02;0.10;;;0.10;;
57571;SDS011;44459;43.522;24.470;2022-10-17T04:08:29;0.00;;;0.00;;
57571;SDS011;44459;43.522;24.470;2022-10-17T04:10:58;0.00;;;0.00;;
57571;SDS011;44459;43.522;24.470;2022-10-17T04:13:29;0.00;;;0.00;;
57571;SDS011;44459;43.522;24.470;2022-10-17T04:15:55;0.00;;;0.00;;
57571;SDS011;44459;43.522;24.470;2022-10-17T04:18:22;0.00;;;0.00;;
57571;SDS011;44459;43.522;24.470;2022-10-17T04:20:48;0.00;;;0.00;;
57571;SDS011;44459;43.522;24.470;2022-10-17T04:23:13;0.00;;;0.00;;
57571;SDS011;44459;43.522;24.470;2022-10-17T04:25:39;0.10;;;0.10;;
57571;SDS011;44459;43.522;24.470;2022-10-17T04:28:04;0.00;;;0.00;;
57571;SDS011;44459;43.522;24.470;2022-10-17T04:30:30;0.00;;;0.00;;
57571;SDS011;44459;43.522;24.470;2022-10-17T04:32:55;0.28;;;0.28;;
57571;SDS011;44459;43.522;24.470;2022-10-17T04:35:21;0.10;;;0.10;;
57571;SDS011;44459;43.522;24.470;2022-10-17T04:37:46;0.10;;;0.10;;
57571;SDS011;44459;43.522;24.470;2022-10-17T04:40:12;0.65;;;0.65;;
57571;SDS011;44459;43.522;24.470;2022-10-17T04:42:37;0.00;;;0.00;;
57571;SDS011;44459;43.522;24.470;2022-10-17T04:45:03;0.10;;;0.10;;
57571;SDS011;44459;43.522;24.470;2022-10-17T04:47:29;0.00;;;0.00;;
57571;SDS011;44459;43.522;24.470;2022-10-17T04:49:54;0.00;;;0.00;;
57571;SDS011;44459;43.522;24.470;2022-10-17T04:52:20;0.10;;;0.10;;
57571;SDS011;44459;43.522;24.470;2022-10-17T04:54:45;0.10;;;0.10;;
57571;SDS011;44459;43.522;24.470;2022-10-17T04:57:11;0.00;;;0.00;;
57571;SDS011;44459;43.522;24.470;2022-10-17T04:59:37;0.00;;;0.00;;
57571;SDS011;44459;43.522;24.470;2022-10-17T05:02:02;0.00;;;0.00;;
57571;SDS011;44459;43.522;24.470;2022-10-17T05:04:28;0.00;;;0.00;;
57571;SDS011;44459;43.522;24.470;2022-10-17T05:06:53;0.00;;;0.00;;
57571;SDS011;44459;43.522;24.470;2022-10-17T05:09:18;0.10;;;0.10;;
57571;SDS011;44459;43.522;24.470;2022-10-17T05:11:44;0.00;;;0.00;;
57571;SDS011;44459;43.522;24.470;2022-10-17T05:14:09;0.00;;;0.00;;
57571;SDS011;44459;43.522;24.470;2022-10-17T05:16:35;0.10;;;0.10;;
57571;SDS011;44459;43.522;24.470;2022-10-17T05:19:00;0.00;;;0.00;;
57571;SDS011;44459;43.522;24.470;2022-10-17T05:21:27;0.10;;;0.10;;
57571;SDS011;44459;43.522;24.470;2022-10-17T05:23:54;0.00;;;0.00;;
57571;SDS011;44459;43.522;24.470;2022-10-17T05:26:19;0.00;;;0.00;;
57571;SDS011;44459;43.522;24.470;2022-10-17T05:28:45;0.10;;;0.10;;
57571;SDS011;44459;43.522;24.470;2022-10-17T05:31:11;0.10;;;0.10;;
57571;SDS011;44459;43.522;24.470;2022-10-17T05:33:37;0.10;;;0.10;;
57571;SDS011;44459;43.522;24.470;2022-10-17T05:36:03;0.00;;;0.00;;
57571;SDS011;44459;43.522;24.470;2022-10-17T05:38:29;0.10;;;0.10;;
57571;SDS011;44459;43.522;24.470;2022-10-17T05:40:58;0.00;;;0.00;;
57571;SDS011;44459;43.522;24.470;2022-10-17T05:43:25;0.00;;;0.00;;
57571;SDS011;44459;43.522;24.470;2022-10-17T05:45:51;0.10;;;0.10;;
57571;SDS011;44459;43.522;24.470;2022-10-17T05:48:17;0.20;;;0.20;;
57571;SDS011;44459;43.522;24.470;2022-10-17T05:50:42;0.10;;;0.10;;
57571;SDS011;44459;43.522;24.470;2022-10-17T05:53:08;0.00;;;0.00;;
57571;SDS011;44459;43.522;24.470;2022-10-17T05:55:34;0.00;;;0.00;;
57571;SDS011;44459;43.522;24.470;2022-10-17T05:57:59;0.90;;;0.90;;
57571;SDS011;44459;43.522;24.470;2022-10-17T06:00:25;0.10;;;0.10;;
57571;SDS011;44459;43.522;24.470;2022-10-17T06:02:51;0.10;;;0.10;;
57571;SDS011;44459;43.522;24.470;2022-10-17T06:05:16;0.10;;;0.10;;
57571;SDS011;44459;43.522;24.470;2022-10-17T06:07:42;1.90;;;1.90;;
57571;SDS011;44459;43.522;24.470;2022-10-17T06:10:08;0.10;;;0.10;;
57571;SDS011;44459;43.522;24.470;2022-10-17T06:12:36;0.00;;;0.00;;
57571;SDS011;44459;43.522;24.470;2022-10-17T06:15:02;0.00;;;0.00;;
57571;SDS011;44459;43.522;24.470;2022-10-17T06:17:28;0.00;;;0.00;;
57571;SDS011;44459;43.522;24.470;2022-10-17T06:19:54;0.00;;;0.00;;
57571;SDS011;44459;43.522;24.470;2022-10-17T06:22:21;0.45;;;0.45;;
57571;SDS011;44459;43.522;24.470;2022-10-17T06:24:46;0.28;;;0.28;;
57571;SDS011;44459;43.522;24.470;2022-10-17T06:27:12;0.10;;;0.10;;
57571;SDS011;44459;43.522;24.470;2022-10-17T06:29:37;0.10;;;0.10;;
57571;SDS011;44459;43.522;24.470;2022-10-17T06:32:03;0.40;;;0.40;;
57571;SDS011;44459;43.522;24.470;2022-10-17T06:34:29;0.10;;;0.10;;
57571;SDS011;44459;43.522;24.470;2022-10-17T06:36:54;0.10;;;0.10;;
57571;SDS011;44459;43.522;24.470;2022-10-17T06:39:19;0.10;;;0.10;;
57571;SDS011;44459;43.522;24.470;2022-10-17T06:41:45;2.97;;;2.75;;
57571;SDS011;44459;43.522;24.470;2022-10-17T06:44:11;0.65;;;0.65;;
57571;SDS011;44459;43.522;24.470;2022-10-17T06:46:37;0.25;;;0.25;;
57571;SDS011;44459;43.522;24.470;2022-10-17T06:49:03;0.55;;;0.55;;
57571;SDS011;44459;43.522;24.470;2022-10-17T06:51:30;1.55;;;1.45;;
57571;SDS011;44459;43.522;24.470;2022-10-17T06:53:56;1.30;;;1.20;;
57571;SDS011;44459;43.522;24.470;2022-10-17T06:56:23;0.10;;;0.10;;
57571;SDS011;44459;43.522;24.470;2022-10-17T06:58:48;3.13;;;1.55;;
57571;SDS011;44459;43.522;24.470;2022-10-17T07:01:15;0.10;;;0.10;;
57571;SDS011;44459;43.522;24.470;2022-10-17T07:03:41;2.13;;;1.60;;
57571;SDS011;44459;43.522;24.470;2022-10-17T07:06:08;3.03;;;1.95;;
57571;SDS011;44459;43.522;24.470;2022-10-17T07:08:37;0.00;;;0.00;;
57571;SDS011;44459;43.522;24.470;2022-10-17T07:11:13;1.42;;;1.27;;
57571;SDS011;44459;43.522;24.470;2022-10-17T07:13:40;7.07;;;2.17;;
57571;SDS011;44459;43.522;24.470;2022-10-17T07:16:06;0.73;;;0.73;;
57571;SDS011;44459;43.522;24.470;2022-10-17T07:18:32;0.10;;;0.10;;
57571;SDS011;44459;43.522;24.470;2022-10-17T07:20:58;7.55;;;2.85;;
57571;SDS011;44459;43.522;24.470;2022-10-17T07:23:25;2.17;;;2.03;;
57571;SDS011;44459;43.522;24.470;2022-10-17T07:25:50;1.98;;;1.88;;
57571;SDS011;44459;43.522;24.470;2022-10-17T07:28:16;0.00;;;0.00;;
57571;SDS011;44459;43.522;24.470;2022-10-17T07:30:42;0.82;;;0.82;;
57571;SDS011;44459;43.522;24.470;2022-10-17T07:33:08;1.70;;;0.75;;
57571;SDS011;44459;43.522;24.470;2022-10-17T07:35:34;0.70;;;0.68;;
57571;SDS011;44459;43.522;24.470;2022-10-17T07:37:59;5.95;;;5.35;;
57571;SDS011;44459;43.522;24.470;2022-10-17T07:40:24;1.65;;;1.60;;
57571;SDS011;44459;43.522;24.470;2022-10-17T07:42:50;0.30;;;0.30;;
57571;SDS011;44459;43.522;24.470;2022-10-17T07:45:15;6.10;;;1.98;;
57571;SDS011;44459;43.522;24.470;2022-10-17T07:47:41;3.65;;;3.35;;
57571;SDS011;44459;43.522;24.470;2022-10-17T07:50:07;0.00;;;0.00;;
57571;SDS011;44459;43.522;24.470;2022-10-17T07:52:33;0.20;;;0.20;;
57571;SDS011;44459;43.522;24.470;2022-10-17T07:54:59;2.17;;;1.80;;
57571;SDS011;44459;43.522;24.470;2022-10-17T07:57:24;1.17;;;1.08;;
57571;SDS011;44459;43.522;24.470;2022-10-17T07:59:50;0.65;;;0.65;;
57571;SDS011;44459;43.522;24.470;2022-10-17T08:02:22;0.28;;;0.28;;
57571;SDS011;44459;43.522;24.470;2022-10-17T08:04:49;1.50;;;1.38;;
57571;SDS011;44459;43.522;24.470;2022-10-17T08:07:16;0.10;;;0.10;;
57571;SDS011;44459;43.522;24.470;2022-10-17T08:09:42;0.40;;;0.40;;
57571;SDS011;44459;43.522;24.470;2022-10-17T08:12:08;2.42;;;2.20;;
57571;SDS011;44459;43.522;24.470;2022-10-17T08:14:34;0.73;;;0.65;;
57571;SDS011;44459;43.522;24.470;2022-10-17T08:16:59;0.00;;;0.00;;
57571;SDS011;44459;43.522;24.470;2022-10-17T08:19:25;1.55;;;1.48;;
57571;SDS011;44459;43.522;24.470;2022-10-17T08:21:50;8.50;;;3.25;;
57571;SDS011;44459;43.522;24.470;2022-10-17T08:24:16;3.13;;;2.10;;
57571;SDS011;44459;43.522;24.470;2022-10-17T08:26:42;0.00;;;0.00;;
57571;SDS011;44459;43.522;24.470;2022-10-17T08:29:14;6.53;;;2.13;;
57571;SDS011;44459;43.522;24.470;2022-10-17T08:31:40;4.65;;;2.42;;
57571;SDS011;44459;43.522;24.470;2022-10-17T08:34:06;0.63;;;0.63;;
57571;SDS011;44459;43.522;24.470;2022-10-17T08:36:32;1.23;;;1.13;;
57571;SDS011;44459;43.522;24.470;2022-10-17T08:38:58;0.65;;;0.55;;
57571;SDS011;44459;43.522;24.470;2022-10-17T08:44:01;2.42;;;2.22;;
57571;SDS011;44459;43.522;24.470;2022-10-17T08:46:37;0.82;;;0.82;;
57571;SDS011;44459;43.522;24.470;2022-10-17T08:49:08;0.93;;;0.73;;
57571;SDS011;44459;43.522;24.470;2022-10-17T08:51:43;0.57;;;0.43;;
57571;SDS011;44459;43.522;24.470;2022-10-17T08:54:16;0.00;;;0.00;;
57571;SDS011;44459;43.522;24.470;2022-10-17T08:56:51;0.20;;;0.20;;
57571;SDS011;44459;43.522;24.470;2022-10-17T08:59:25;0.00;;;0.00;;
57571;SDS011;44459;43.522;24.470;2022-10-17T09:04:52;0.05;;;0.05;;
57571;SDS011;44459;43.522;24.470;2022-10-17T09:15:46;4.20;;;2.08;;
57571;SDS011;44459;43.522;24.470;2022-10-17T09:18:23;2.17;;;1.95;;
57571;SDS011;44459;43.522;24.470;2022-10-17T09:21:00;4.57;;;1.13;;
57571;SDS011;44459;43.522;24.470;2022-10-17T09:23:30;0.75;;;0.75;;
57571;SDS011;44459;43.522;24.470;2022-10-17T09:26:07;0.10;;;0.10;;
57571;SDS011;44459;43.522;24.470;2022-10-17T09:28:36;0.77;;;0.77;;
57571;SDS011;44459;43.522;24.470;2022-10-17T09:31:05;1.58;;;1.48;;
57571;SDS011;44459;43.522;24.470;2022-10-17T09:33:38;0.22;;;0.22;;
57571;SDS011;44459;43.522;24.470;2022-10-17T09:36:10;0.73;;;0.73;;
57571;SDS011;44459;43.522;24.470;2022-10-17T09:38:43;8.82;;;4.00;;
57571;SDS011;44459;43.522;24.470;2022-10-17T09:41:14;3.13;;;2.83;;
57571;SDS011;44459;43.522;24.470;2022-10-17T09:43:42;2.88;;;1.90;;
57571;SDS011;44459;43.522;24.470;2022-10-17T09:48:58;2.72;;;2.03;;
57571;SDS011;44459;43.522;24.470;2022-10-17T09:51:27;1.77;;;1.02;;
57571;SDS011;44459;43.522;24.470;2022-10-17T09:54:02;1.55;;;1.05;;
57571;SDS011;44459;43.522;24.470;2022-10-17T09:56:52;1.95;;;1.02;;
57571;SDS011;44459;43.522;24.470;2022-10-17T09:59:36;1.98;;;1.50;;
57571;SDS011;44459;43.522;24.470;2022-10-17T10:02:07;2.50;;;1.52;;
57571;SDS011;44459;43.522;24.470;2022-10-17T10:07:29;3.30;;;2.30;;
57571;SDS011;44459;43.522;24.470;2022-10-17T10:09:56;5.80;;;1.27;;
57571;SDS011;44459;43.522;24.470;2022-10-17T10:12:27;0.52;;;0.52;;
57571;SDS011;44459;43.522;24.470;2022-10-17T10:14:55;1.77;;;1.67;;
57571;SDS011;44459;43.522;24.470;2022-10-17T10:20:27;0.10;;;0.10;;
57571;SDS011;44459;43.522;24.470;2022-10-17T10:23:06;3.17;;;2.40;;
57571;SDS011;44459;43.522;24.470;2022-10-17T10:25:48;4.00;;;2.35;;
57571;SDS011;44459;43.522;24.470;2022-10-17T10:28:18;1.15;;;1.05;;
57571;SDS011;44459;43.522;24.470;2022-10-17T10:30:48;3.33;;;2.42;;
57571;SDS011;44459;43.522;24.470;2022-10-17T10:33:15;0.63;;;0.63;;
57571;SDS011;44459;43.522;24.470;2022-10-17T10:35:51;2.10;;;1.95;;
57571;SDS011;44459;43.522;24.470;2022-10-17T10:38:22;0.75;;;0.75;;
57571;SDS011;44459;43.522;24.470;2022-10-17T10:40:49;3.78;;;2.88;;
57571;SDS011;44459;43.522;24.470;2022-10-17T10:43:22;1.40;;;1.30;;
57571;SDS011;44459;43.522;24.470;2022-10-17T10:45:48;2.72;;;1.88;;
57571;SDS011;44459;43.522;24.470;2022-10-17T10:48:23;2.92;;;1.95;;
57571;SDS011;44459;43.522;24.470;2022-10-17T10:50:56;1.75;;;1.65;;
57571;SDS011;44459;43.522;24.470;2022-10-17T10:56:07;3.70;;;2.50;;
57571;SDS011;44459;43.522;24.470;2022-10-17T10:58:43;1.90;;;1.42;;
57571;SDS011;44459;43.522;24.470;2022-10-17T11:01:31;0.70;;;0.70;;
57571;SDS011;44459;43.522;24.470;2022-10-17T11:06:46;2.88;;;2.15;;
57571;SDS011;44459;43.522;24.470;2022-10-17T11:09:44;1.80;;;1.25;;
57571;SDS011;44459;43.522;24.470;2022-10-17T11:17:49;1.33;;;1.23;;
57571;SDS011;44459;43.522;24.470;2022-10-17T11:23:13;1.45;;;1.15;;
57571;SDS011;44459;43.522;24.470;2022-10-17T11:26:01;3.05;;;1.75;;
57571;SDS011;44459;43.522;24.470;2022-10-17T11:28:30;0.88;;;0.88;;
57571;SDS011;44459;43.522;24.470;2022-10-17T11:31:06;0.50;;;0.40;;
57571;SDS011;44459;43.522;24.470;2022-10-17T11:33:43;6.82;;;2.70;;
57571;SDS011;44459;43.522;24.470;2022-10-17T11:36:19;0.63;;;0.63;;
57571;SDS011;44459;43.522;24.470;2022-10-17T11:38:51;1.60;;;1.50;;
57571;SDS011;44459;43.522;24.470;2022-10-17T11:41:42;0.17;;;0.17;;
57571;SDS011;44459;43.522;24.470;2022-10-17T11:46:50;0.28;;;0.28;;
57571;SDS011;44459;43.522;24.470;2022-10-17T11:49:24;5.93;;;2.00;;
57571;SDS011;44459;43.522;24.470;2022-10-17T11:54:56;1.88;;;1.10;;
57571;SDS011;44459;43.522;24.470;2022-10-17T12:05:49;4.32;;;1.13;;
57571;SDS011;44459;43.522;24.470;2022-10-17T12:08:24;0.38;;;0.38;;
57571;SDS011;44459;43.522;24.470;2022-10-17T12:13:53;0.45;;;0.45;;
57571;SDS011;44459;43.522;24.470;2022-10-17T12:18:46;1.35;;;0.80;;
57571;SDS011;44459;43.522;24.470;2022-10-17T12:21:14;2.60;;;2.00;;
57571;SDS011;44459;43.522;24.470;2022-10-17T12:23:40;0.00;;;0.00;;
57571;SDS011;44459;43.522;24.470;2022-10-17T12:26:23;1.13;;;0.90;;
57571;SDS011;44459;43.522;24.470;2022-10-17T12:28:50;1.10;;;1.00;;
57571;SDS011;44459;43.522;24.470;2022-10-17T12:33:49;1.58;;;1.17;;
57571;SDS011;44459;43.522;24.470;2022-10-17T12:38:43;3.03;;;1.50;;
57571;SDS011;44459;43.522;24.470;2022-10-17T12:41:09;4.50;;;1.17;;
57571;SDS011;44459;43.522;24.470;2022-10-17T12:43:51;0.10;;;0.10;;
57571;SDS011;44459;43.522;24.470;2022-10-17T12:57:19;0.15;;;0.15;;
57571;SDS011;44459;43.522;24.470;2022-10-17T12:59:48;1.05;;;0.98;;
57571;SDS011;44459;43.522;24.470;2022-10-17T13:02:19;0.00;;;0.00;;
57571;SDS011;44459;43.522;24.470;2022-10-17T13:04:46;0.00;;;0.00;;
57571;SDS011;44459;43.522;24.470;2022-10-17T13:07:15;0.00;;;0.00;;
57571;SDS011;44459;43.522;24.470;2022-10-17T13:09:44;2.13;;;1.13;;
57571;SDS011;44459;43.522;24.470;2022-10-17T13:12:14;2.90;;;1.10;;
57571;SDS011;44459;43.522;24.470;2022-10-17T13:14:45;1.80;;;1.65;;
57571;SDS011;44459;43.522;24.470;2022-10-17T13:17:24;0.65;;;0.60;;
57571;SDS011;44459;43.522;24.470;2022-10-17T13:19:53;0.30;;;0.30;;
57571;SDS011;44459;43.522;24.470;2022-10-17T13:24:48;1.57;;;1.47;;
57571;SDS011;44459;43.522;24.470;2022-10-17T13:27:21;1.83;;;1.23;;
57571;SDS011;44459;43.522;24.470;2022-10-17T13:29:55;0.00;;;0.00;;
57571;SDS011;44459;43.522;24.470;2022-10-17T13:32:23;0.22;;;0.22;;
57571;SDS011;44459;43.522;24.470;2022-10-17T13:35:09;0.00;;;0.00;;
57571;SDS011;44459;43.522;24.470;2022-10-17T13:37:41;0.00;;;0.00;;
57571;SDS011;44459;43.522;24.470;2022-10-17T13:40:16;2.30;;;1.00;;
57571;SDS011;44459;43.522;24.470;2022-10-17T13:42:46;0.80;;;0.80;;
57571;SDS011;44459;43.522;24.470;2022-10-17T13:45:15;4.38;;;1.85;;
57571;SDS011;44459;43.522;24.470;2022-10-17T13:47:49;0.52;;;0.52;;
57571;SDS011;44459;43.522;24.470;2022-10-17T13:50:49;0.35;;;0.35;;
57571;SDS011;44459;43.522;24.470;2022-10-17T13:53:11;0.10;;;0.10;;
57571;SDS011;44459;43.522;24.470;2022-10-17T13:58:40;0.08;;;0.08;;
57571;SDS011;44459;43.522;24.470;2022-10-17T14:01:09;2.70;;;1.38;;
57571;SDS011;44459;43.522;24.470;2022-10-17T14:03:36;1.65;;;0.90;;
57571;SDS011;44459;43.522;24.470;2022-10-17T14:06:06;1.15;;;1.10;;
57571;SDS011;44459;43.522;24.470;2022-10-17T14:08:35;0.55;;;0.55;;
57571;SDS011;44459;43.522;24.470;2022-10-17T14:11:02;3.42;;;2.20;;
57571;SDS011;44459;43.522;24.470;2022-10-17T14:13:38;7.40;;;1.65;;
57571;SDS011;44459;43.522;24.470;2022-10-17T14:16:05;0.43;;;0.43;;
57571;SDS011;44459;43.522;24.470;2022-10-17T14:18:33;1.00;;;0.90;;
57571;SDS011;44459;43.522;24.470;2022-10-17T14:21:00;3.92;;;1.25;;
57571;SDS011;44459;43.522;24.470;2022-10-17T14:26:15;0.60;;;0.60;;
57571;SDS011;44459;43.522;24.470;2022-10-17T14:29:02;7.97;;;1.52;;
57571;SDS011;44459;43.522;24.470;2022-10-17T14:31:32;1.75;;;1.23;;
57571;SDS011;44459;43.522;24.470;2022-10-17T14:34:00;3.58;;;1.67;;
57571;SDS011;44459;43.522;24.470;2022-10-17T14:36:29;1.00;;;0.90;;
57571;SDS011;44459;43.522;24.470;2022-10-17T14:41:26;0.10;;;0.10;;
57571;SDS011;44459;43.522;24.470;2022-10-17T14:43:59;2.45;;;1.50;;
57571;SDS011;44459;43.522;24.470;2022-10-17T14:46:27;0.80;;;0.50;;
57571;SDS011;44459;43.522;24.470;2022-10-17T14:48:54;1.27;;;0.65;;
57571;SDS011;44459;43.522;24.470;2022-10-17T14:51:22;3.63;;;1.50;;
57571;SDS011;44459;43.522;24.470;2022-10-17T14:54:02;0.32;;;0.32;;
57571;SDS011;44459;43.522;24.470;2022-10-17T14:56:40;1.00;;;0.95;;
57571;SDS011;44459;43.522;24.470;2022-10-17T14:59:06;0.30;;;0.30;;
57571;SDS011;44459;43.522;24.470;2022-10-17T15:01:35;0.55;;;0.55;;
57571;SDS011;44459;43.522;24.470;2022-10-17T15:04:00;2.83;;;0.65;;
57571;SDS011;44459;43.522;24.470;2022-10-17T15:06:27;0.82;;;0.82;;
57571;SDS011;44459;43.522;24.470;2022-10-17T15:08:55;1.27;;;1.10;;
57571;SDS011;44459;43.522;24.470;2022-10-17T15:11:21;3.67;;;0.98;;
57571;SDS011;44459;43.522;24.470;2022-10-17T15:13:47;0.15;;;0.15;;
57571;SDS011;44459;43.522;24.470;2022-10-17T15:16:14;0.57;;;0.55;;
57571;SDS011;44459;43.522;24.470;2022-10-17T15:18:43;0.35;;;0.35;;
57571;SDS011;44459;43.522;24.470;2022-10-17T15:21:10;4.57;;;1.15;;
57571;SDS011;44459;43.522;24.470;2022-10-17T15:23:37;0.25;;;0.25;;
57571;SDS011;44459;43.522;24.470;2022-10-17T15:26:05;0.38;;;0.38;;
57571;SDS011;44459;43.522;24.470;2022-10-17T15:28:41;2.55;;;0.50;;
57571;SDS011;44459;43.522;24.470;2022-10-17T15:31:11;0.30;;;0.30;;
57571;SDS011;44459;43.522;24.470;2022-10-17T15:33:37;1.73;;;1.30;;
57571;SDS011;44459;43.522;24.470;2022-10-17T15:36:03;2.08;;;0.43;;
57571;SDS011;44459;43.522;24.470;2022-10-17T15:38:29;1.15;;;1.05;;
57571;SDS011;44459;43.522;24.470;2022-10-17T15:40:54;1.23;;;1.13;;
57571;SDS011;44459;43.522;24.470;2022-10-17T15:43:19;0.80;;;0.80;;
57571;SDS011;44459;43.522;24.470;2022-10-17T15:45:45;12.85;;;5.40;;
57571;SDS011;44459;43.522;24.470;2022-10-17T15:48:14;14.85;;;6.05;;
57571;SDS011;44459;43.522;24.470;2022-10-17T15:50:43;12.98;;;7.22;;
57571;SDS011;44459;43.522;24.470;2022-10-17T15:53:12;23.73;;;10.23;;
57571;SDS011;44459;43.522;24.470;2022-10-17T15:55:38;6.40;;;5.97;;
57571;SDS011;44459;43.522;24.470;2022-10-17T15:58:04;30.15;;;10.70;;
57571;SDS011;44459;43.522;24.470;2022-10-17T16:00:30;49.55;;;18.38;;
57571;SDS011;44459;43.522;24.470;2022-10-17T16:02:55;28.45;;;14.40;;
57571;SDS011;44459;43.522;24.470;2022-10-17T16:05:22;7.95;;;7.28;;
57571;SDS011;44459;43.522;24.470;2022-10-17T16:07:54;22.13;;;8.15;;
57571;SDS011;44459;43.522;24.470;2022-10-17T16:10:21;5.90;;;3.55;;
57571;SDS011;44459;43.522;24.470;2022-10-17T16:12:47;5.82;;;2.80;;
57571;SDS011;44459;43.522;24.470;2022-10-17T16:15:15;1.65;;;1.55;;
57571;SDS011;44459;43.522;24.470;2022-10-17T16:17:51;2.90;;;2.80;;
57571;SDS011;44459;43.522;24.470;2022-10-17T16:20:18;3.13;;;2.42;;
57571;SDS011;44459;43.522;24.470;2022-10-17T16:22:45;2.40;;;1.35;;
57571;SDS011;44459;43.522;24.470;2022-10-17T16:27:47;1.90;;;1.75;;
57571;SDS011;44459;43.522;24.470;2022-10-17T16:30:14;1.67;;;1.58;;
57571;SDS011;44459;43.522;24.470;2022-10-17T16:32:40;0.30;;;0.30;;
57571;SDS011;44459;43.522;24.470;2022-10-17T16:35:06;0.70;;;0.70;;
57571;SDS011;44459;43.522;24.470;2022-10-17T16:37:32;2.30;;;2.05;;
57571;SDS011;44459;43.522;24.470;2022-10-17T16:39:57;1.92;;;1.35;;
57571;SDS011;44459;43.522;24.470;2022-10-17T16:42:24;2.85;;;2.65;;
57571;SDS011;44459;43.522;24.470;2022-10-17T16:44:50;1.58;;;1.45;;
57571;SDS011;44459;43.522;24.470;2022-10-17T16:47:16;4.03;;;3.30;;
57571;SDS011;44459;43.522;24.470;2022-10-17T16:49:42;2.42;;;0.32;;
57571;SDS011;44459;43.522;24.470;2022-10-17T16:52:07;0.10;;;0.10;;
57571;SDS011;44459;43.522;24.470;2022-10-17T16:54:33;0.93;;;0.63;;
57571;SDS011;44459;43.522;24.470;2022-10-17T16:56:59;1.00;;;1.00;;